createdAt,value
2019-02-19T00:02:07.196Z,8.88
2019-02-19T00:04:35.659Z,8.84
2019-02-19T00:07:04.067Z,8.80
2019-02-19T00:09:32.537Z,8.74
2019-02-19T00:12:00.936Z,8.67
2019-02-19T00:14:29.424Z,8.68
2019-02-19T00:16:57.875Z,8.66
2019-02-19T00:19:26.358Z,8.63
2019-02-19T00:21:54.778Z,8.65
2019-02-19T00:24:23.302Z,8.62
2019-02-19T00:26:51.716Z,8.57
2019-02-19T00:29:20.124Z,8.57
2019-02-19T00:31:49.239Z,8.55
2019-02-19T00:34:17.659Z,8.48
2019-02-19T00:36:46.080Z,8.54
2019-02-19T00:39:14.537Z,8.50
2019-02-19T00:41:42.981Z,8.52
2019-02-19T00:44:11.404Z,8.42
2019-02-19T00:46:39.844Z,8.44
2019-02-19T00:49:08.508Z,8.33
2019-02-19T00:51:36.944Z,8.29
2019-02-19T00:54:05.392Z,8.27
2019-02-19T00:56:33.868Z,8.23
2019-02-19T00:59:02.273Z,8.22
2019-02-19T01:01:30.722Z,8.14
2019-02-19T01:03:59.156Z,8.11
2019-02-19T01:06:28.683Z,8.04
2019-02-19T01:08:57.195Z,8.00
2019-02-19T01:11:25.597Z,7.93
2019-02-19T01:13:54.894Z,7.88
2019-02-19T01:16:23.323Z,7.87
2019-02-19T01:18:51.739Z,7.88
2019-02-19T01:21:20.185Z,7.87
2019-02-19T01:23:48.604Z,7.83
2019-02-19T01:26:17.020Z,7.73
2019-02-19T01:28:45.482Z,7.74
2019-02-19T01:31:13.983Z,7.71
2019-02-19T01:33:42.382Z,7.68
2019-02-19T01:36:10.836Z,7.63
2019-02-19T01:38:39.245Z,7.56
2019-02-19T01:41:07.692Z,7.51
2019-02-19T01:43:36.118Z,7.56
2019-02-19T01:46:04.663Z,7.55
2019-02-19T01:48:33.183Z,7.58
2019-02-19T01:51:01.641Z,7.58
2019-02-19T01:53:30.021Z,7.57
2019-02-19T01:55:58.785Z,7.55
2019-02-19T01:58:27.202Z,7.53
2019-02-19T02:00:55.636Z,7.53
2019-02-19T02:03:24.090Z,7.51
2019-02-19T02:05:52.498Z,7.49
2019-02-19T02:08:20.954Z,7.44
2019-02-19T02:10:49.381Z,7.43
2019-02-19T02:13:17.790Z,7.43
2019-02-19T02:15:46.214Z,7.38
2019-02-19T02:18:14.646Z,7.33
2019-02-19T02:20:43.062Z,7.28
2019-02-19T02:23:11.570Z,7.25
2019-02-19T02:25:39.985Z,7.23
2019-02-19T02:28:08.430Z,7.23
2019-02-19T02:30:36.861Z,7.21
2019-02-19T02:33:05.324Z,7.19
2019-02-19T02:35:33.748Z,7.20
2019-02-19T02:38:02.193Z,7.20
2019-02-19T02:40:30.714Z,7.18
2019-02-19T02:42:59.162Z,7.18
2019-02-19T02:45:27.552Z,7.18
2019-02-19T02:47:56.010Z,7.17
2019-02-19T02:50:24.441Z,7.15
2019-02-19T02:52:52.870Z,7.13
2019-02-19T02:55:21.302Z,7.14
2019-02-19T02:57:49.716Z,7.11
2019-02-19T03:00:18.235Z,7.10
2019-02-19T03:02:46.656Z,7.04
2019-02-19T03:05:15.081Z,7.00
2019-02-19T03:07:45.159Z,7.00
2019-02-19T03:10:13.642Z,6.98
2019-02-19T03:12:42.078Z,6.95
2019-02-19T03:15:11.158Z,6.91
2019-02-19T03:17:39.596Z,6.89
2019-02-19T03:20:08.587Z,6.88
2019-02-19T03:22:37.024Z,6.86
2019-02-19T03:25:06.171Z,6.92
2019-02-19T03:27:34.600Z,6.94
2019-02-19T03:30:03.482Z,6.91
2019-02-19T03:32:31.912Z,7.03
2019-02-19T03:35:00.482Z,7.04
2019-02-19T03:37:28.866Z,7.00
2019-02-19T03:39:57.326Z,7.12
2019-02-19T03:42:25.849Z,7.10
2019-02-19T03:44:54.274Z,7.08
2019-02-19T03:47:22.693Z,7.07
2019-02-19T03:49:51.125Z,7.07
2019-02-19T03:52:19.530Z,7.03
2019-02-19T03:54:48.033Z,7.05
2019-02-19T03:57:16.511Z,7.03
2019-02-19T03:59:44.939Z,7.02
2019-02-19T04:02:13.498Z,6.97
2019-02-19T04:04:41.925Z,6.94
2019-02-19T04:07:10.374Z,6.90
2019-02-19T04:09:38.784Z,6.89
2019-02-19T04:12:07.351Z,6.85
2019-02-19T04:14:35.748Z,6.84
2019-02-19T04:17:04.316Z,6.94
2019-02-19T04:19:33.365Z,6.96
2019-02-19T04:22:01.790Z,6.95
2019-02-19T04:24:30.205Z,7.03
2019-02-19T04:26:58.653Z,6.99
2019-02-19T04:29:27.068Z,7.03
2019-02-19T04:31:55.553Z,7.03
2019-02-19T04:34:24.038Z,7.01
2019-02-19T04:36:52.473Z,7.01
2019-02-19T04:39:20.962Z,7.00
2019-02-19T04:41:49.410Z,6.93
2019-02-19T04:44:17.846Z,6.96
2019-02-19T04:46:46.322Z,6.91
2019-02-19T04:49:14.749Z,6.93
2019-02-19T04:51:43.210Z,6.92
2019-02-19T04:54:11.690Z,6.96
2019-02-19T04:56:40.090Z,6.91
2019-02-19T04:59:08.540Z,6.91
2019-02-19T05:01:36.970Z,6.91
2019-02-19T05:04:05.399Z,6.88
2019-02-19T05:06:33.829Z,6.98
2019-02-19T05:09:02.353Z,6.95
2019-02-19T05:11:30.761Z,6.98
2019-02-19T05:13:59.212Z,6.91
2019-02-19T05:16:27.644Z,6.88
2019-02-19T05:18:56.148Z,6.95
2019-02-19T05:21:24.583Z,6.98
2019-02-19T05:23:53.047Z,6.98
2019-02-19T05:26:21.567Z,6.96
2019-02-19T05:28:49.984Z,7.00
2019-02-19T05:31:18.440Z,7.01
2019-02-19T05:33:46.845Z,7.02
2019-02-19T05:36:15.288Z,7.06
2019-02-19T05:38:43.708Z,7.06
2019-02-19T05:41:12.169Z,7.04
2019-02-19T05:43:40.671Z,7.02
2019-02-19T05:46:09.083Z,7.05
2019-02-19T05:48:37.528Z,7.06
2019-02-19T05:51:05.981Z,7.13
2019-02-19T05:53:34.390Z,7.16
2019-02-19T05:56:02.868Z,7.19
2019-02-19T05:58:31.322Z,7.20
2019-02-19T06:00:59.824Z,7.21
2019-02-19T06:03:29.285Z,7.22
2019-02-19T06:05:57.661Z,7.25
2019-02-19T06:08:26.133Z,7.28
2019-02-19T06:10:54.542Z,7.30
2019-02-19T06:13:22.967Z,7.30
2019-02-19T06:15:51.495Z,7.33
2019-02-19T06:18:19.909Z,7.38
2019-02-19T06:20:48.320Z,7.40
2019-02-19T06:23:16.782Z,7.43
2019-02-19T06:25:45.212Z,7.45
2019-02-19T06:28:13.653Z,7.49
2019-02-19T06:30:42.082Z,7.49
2019-02-19T06:33:10.600Z,7.53
2019-02-19T06:35:39.025Z,7.54
2019-02-19T06:38:07.444Z,7.57
2019-02-19T06:40:35.882Z,7.60
2019-02-19T06:43:04.419Z,7.61
2019-02-19T06:45:32.871Z,7.63
2019-02-19T06:48:01.303Z,7.64
2019-02-19T06:50:29.723Z,7.66
2019-02-19T06:52:58.165Z,7.63
2019-02-19T06:55:26.608Z,7.65
2019-02-19T06:57:55.045Z,7.63
2019-02-19T07:00:23.598Z,7.55
2019-02-19T07:02:53.721Z,7.58
2019-02-19T07:05:23.775Z,7.56
2019-02-19T07:07:52.265Z,7.55
2019-02-19T07:10:20.697Z,7.57
2019-02-19T07:12:49.174Z,7.55
2019-02-19T07:15:17.870Z,7.51
2019-02-19T07:17:46.327Z,7.53
2019-02-19T07:20:14.806Z,7.53
2019-02-19T07:22:43.250Z,7.54
2019-02-19T07:25:12.536Z,7.53
2019-02-19T07:27:40.978Z,7.55
2019-02-19T07:30:11.583Z,7.56
2019-02-19T07:32:40.016Z,7.57
2019-02-19T07:35:10.011Z,7.55
2019-02-19T07:37:38.437Z,7.60
2019-02-19T07:40:11.823Z,7.56
2019-02-19T07:42:40.263Z,7.60
2019-02-19T07:45:11.074Z,7.65
2019-02-19T07:47:39.534Z,7.68
2019-02-19T07:50:10.370Z,7.69
2019-02-19T07:52:38.855Z,7.75
2019-02-19T07:55:09.911Z,7.78
2019-02-19T07:57:38.353Z,7.82
2019-02-19T08:00:11.891Z,7.86
2019-02-19T08:02:40.388Z,7.93
2019-02-19T08:05:09.647Z,7.96
2019-02-19T08:07:38.153Z,7.95
2019-02-19T08:10:11.840Z,7.93
2019-02-19T08:12:40.315Z,7.97
2019-02-19T08:15:12.735Z,7.93
2019-02-19T08:17:41.165Z,7.96
2019-02-19T08:20:15.711Z,7.98
2019-02-19T08:22:40.520Z,8.02
2019-02-19T08:25:09.074Z,8.03
2019-02-19T08:27:37.576Z,8.07
2019-02-19T08:30:08.848Z,8.10
2019-02-19T08:32:37.268Z,8.10
2019-02-19T08:35:08.309Z,8.10
2019-02-19T08:37:36.764Z,8.15
2019-02-19T08:40:07.690Z,8.21
2019-02-19T08:42:36.150Z,8.23
2019-02-19T08:45:05.995Z,8.31
2019-02-19T08:47:42.295Z,8.38
2019-02-19T08:50:06.768Z,8.43
2019-02-19T08:52:35.219Z,8.43
2019-02-19T08:55:04.090Z,8.52
2019-02-19T08:57:32.507Z,8.66
2019-02-19T09:00:00.963Z,8.77
2019-02-19T09:02:29.398Z,8.92
2019-02-19T09:04:57.837Z,9.00
2019-02-19T09:07:26.284Z,9.04
2019-02-19T09:09:54.765Z,9.13
2019-02-19T09:12:23.445Z,9.21
2019-02-19T09:14:51.876Z,9.28
2019-02-19T09:17:23.179Z,9.36
2019-02-19T09:19:51.656Z,9.30
2019-02-19T09:22:20.081Z,9.30
2019-02-19T09:24:48.536Z,9.31
2019-02-19T09:27:17.005Z,9.23
2019-02-19T09:29:45.427Z,9.29
2019-02-19T09:32:13.871Z,9.32
2019-02-19T09:34:42.383Z,9.26
2019-02-19T09:37:10.803Z,9.20
2019-02-19T09:39:39.257Z,9.20
2019-02-19T09:42:07.721Z,9.35
2019-02-19T09:44:36.130Z,9.43
2019-02-19T09:47:04.595Z,9.66
2019-02-19T09:49:33.038Z,9.65
2019-02-19T09:52:02.298Z,9.60
2019-02-19T09:54:30.716Z,9.71
2019-02-19T09:57:00.667Z,9.69
2019-02-19T09:59:29.135Z,9.56
2019-02-19T10:01:57.577Z,9.50
2019-02-19T10:04:26.055Z,9.58
2019-02-19T10:06:54.508Z,9.61
2019-02-19T10:09:22.951Z,9.90
2019-02-19T10:11:51.400Z,10.16
2019-02-19T10:14:19.867Z,10.37
2019-02-19T10:16:48.331Z,10.63
2019-02-19T10:19:16.751Z,10.40
2019-02-19T10:21:45.753Z,10.59
2019-02-19T10:24:14.540Z,10.37
2019-02-19T10:26:42.963Z,10.35
2019-02-19T10:29:11.421Z,10.44
2019-02-19T10:31:39.898Z,10.29
2019-02-19T10:34:08.444Z,10.33
2019-02-19T10:36:38.572Z,10.43
2019-02-19T10:39:08.820Z,10.28
2019-02-19T10:41:37.291Z,9.97
2019-02-19T10:44:05.709Z,10.02
2019-02-19T10:46:34.186Z,10.06
2019-02-19T10:49:02.614Z,10.19
2019-02-19T10:51:31.032Z,10.00
2019-02-19T10:53:59.513Z,10.02
2019-02-19T10:56:27.935Z,9.93
2019-02-19T10:58:56.382Z,9.80
2019-02-19T11:01:24.934Z,9.71
2019-02-19T11:03:53.382Z,9.85
2019-02-19T11:06:21.815Z,10.00
2019-02-19T11:08:50.259Z,10.12
2019-02-19T11:11:18.777Z,10.14
2019-02-19T11:13:47.213Z,10.06
2019-02-19T11:16:15.673Z,10.09
2019-02-19T11:18:44.103Z,10.18
2019-02-19T11:21:19.337Z,10.09
2019-02-19T11:23:42.833Z,10.20
2019-02-19T11:26:16.276Z,10.26
2019-02-19T11:28:44.966Z,10.30
2019-02-19T11:31:13.404Z,10.49
2019-02-19T11:33:46.667Z,10.53
2019-02-19T11:36:15.269Z,10.53
2019-02-19T11:38:43.709Z,10.63
2019-02-19T11:41:12.174Z,10.67
2019-02-19T11:43:40.668Z,10.84
2019-02-19T11:46:09.099Z,11.05
2019-02-19T11:48:37.601Z,11.03
2019-02-19T11:51:06.067Z,10.68
2019-02-19T11:53:34.558Z,10.79
2019-02-19T11:56:03.000Z,10.61
2019-02-19T11:58:31.496Z,10.61
2019-02-19T12:01:00.748Z,10.68
2019-02-19T12:03:29.261Z,10.62
2019-02-19T12:05:57.799Z,10.63
2019-02-19T12:08:26.222Z,10.51
2019-02-19T12:10:56.765Z,10.62
2019-02-19T12:13:25.252Z,10.56
2019-02-19T12:15:53.781Z,10.59
2019-02-19T12:18:22.283Z,10.42
2019-02-19T12:20:50.728Z,10.51
2019-02-19T12:23:19.168Z,10.48
2019-02-19T12:25:47.612Z,10.47
2019-02-19T12:28:17.660Z,10.43
2019-02-19T12:30:49.057Z,10.46
2019-02-19T12:33:17.459Z,10.55
2019-02-19T12:35:45.967Z,10.60
2019-02-19T12:38:14.411Z,10.85
2019-02-19T12:40:42.937Z,10.72
2019-02-19T12:43:11.532Z,10.59
2019-02-19T12:45:40.024Z,10.79
2019-02-19T12:48:08.464Z,10.89
2019-02-19T12:50:36.913Z,10.86
2019-02-19T12:53:05.362Z,10.92
2019-02-19T12:55:33.924Z,10.80
2019-02-19T12:58:02.324Z,10.81
2019-02-19T13:00:30.911Z,10.72
2019-02-19T13:02:59.410Z,10.60
2019-02-19T13:05:27.872Z,10.53
2019-02-19T13:07:56.286Z,10.29
2019-02-19T13:10:24.787Z,10.24
2019-02-19T13:12:53.235Z,10.18
2019-02-19T13:15:22.626Z,10.15
2019-02-19T13:17:51.187Z,10.21
2019-02-19T13:20:19.773Z,10.19
2019-02-19T13:22:48.364Z,10.28
2019-02-19T13:25:16.838Z,10.35
2019-02-19T13:27:45.251Z,10.24
2019-02-19T13:30:21.384Z,10.16
2019-02-19T13:32:49.836Z,10.14
2019-02-19T13:35:18.344Z,10.00
2019-02-19T13:37:46.876Z,9.97
2019-02-19T13:40:19.646Z,9.92
2019-02-19T13:42:48.209Z,9.91
2019-02-19T13:45:16.790Z,9.99
2019-02-19T13:47:45.307Z,9.96
2019-02-19T13:50:22.963Z,9.94
2019-02-19T13:52:56.062Z,9.90
2019-02-19T13:55:26.140Z,9.75
2019-02-19T13:58:04.266Z,9.77
2019-02-19T14:00:34.493Z,9.81
2019-02-19T14:03:03.328Z,9.78
2019-02-19T14:05:31.792Z,9.80
2019-02-19T14:08:00.268Z,9.81
2019-02-19T14:10:28.704Z,9.80
2019-02-19T14:12:57.162Z,9.81
2019-02-19T14:15:30.012Z,9.82
2019-02-19T14:17:59.151Z,9.79
2019-02-19T14:20:29.213Z,9.76
2019-02-19T14:23:02.018Z,9.77
2019-02-19T14:25:35.038Z,9.77
2019-02-19T14:28:21.647Z,9.71
2019-02-19T14:31:03.691Z,9.76
2019-02-19T14:33:33.792Z,9.77
2019-02-19T14:36:20.454Z,9.74
2019-02-19T14:39:02.452Z,9.81
2019-02-19T14:41:48.397Z,9.82
2019-02-19T14:44:33.814Z,9.79
2019-02-19T14:47:03.907Z,9.78
2019-02-19T14:49:50.459Z,9.79
2019-02-19T14:52:29.459Z,9.73
2019-02-19T14:54:59.523Z,9.74
2019-02-19T14:57:45.909Z,9.68
2019-02-19T15:00:18.683Z,9.67
2019-02-19T15:02:51.716Z,9.66
2019-02-19T15:05:24.892Z,9.58
2019-02-19T15:07:57.913Z,9.63
2019-02-19T15:10:45.789Z,9.61
2019-02-19T15:13:16.701Z,9.59
2019-02-19T15:15:52.976Z,9.52
2019-02-19T15:18:34.953Z,9.55
2019-02-19T15:21:20.916Z,9.55
2019-02-19T15:23:53.451Z,9.52
2019-02-19T15:26:23.507Z,9.55
2019-02-19T15:29:05.654Z,9.55
2019-02-19T15:31:41.704Z,9.49
2019-02-19T15:34:28.196Z,9.49
2019-02-19T15:36:58.385Z,9.52
2019-02-19T15:39:30.905Z,9.51
2019-02-19T15:42:06.765Z,9.48
2019-02-19T15:44:42.744Z,9.52
2019-02-19T15:47:21.586Z,9.50
2019-02-19T15:49:51.647Z,9.50
2019-02-19T15:52:27.941Z,9.50
2019-02-19T15:54:58.008Z,9.51
2019-02-19T15:57:33.651Z,9.49
2019-02-19T16:00:03.964Z,9.49
2019-02-19T16:02:36.806Z,9.48
2019-02-19T16:05:10.754Z,9.49
2019-02-19T16:07:44.096Z,9.45
2019-02-19T16:10:26.178Z,9.47
2019-02-19T16:13:11.580Z,9.41
2019-02-19T16:16:06.909Z,9.38
2019-02-19T16:18:39.846Z,9.31
2019-02-19T16:21:15.546Z,9.26
2019-02-19T16:23:57.672Z,9.23
2019-02-19T16:26:46.869Z,9.18
2019-02-19T16:29:22.801Z,9.14
2019-02-19T16:32:01.497Z,9.01
2019-02-19T16:34:34.791Z,9.04
2019-02-19T16:37:19.861Z,8.99
2019-02-19T16:39:55.663Z,9.01
2019-02-19T16:42:41.640Z,9.00
2019-02-19T16:45:26.941Z,9.01
2019-02-19T16:48:02.472Z,8.98
2019-02-19T16:50:52.110Z,9.00
2019-02-19T16:53:22.441Z,8.98
2019-02-19T16:55:52.493Z,8.97
2019-02-19T16:58:28.316Z,8.94
2019-02-19T17:00:58.389Z,8.93
2019-02-19T17:03:31.464Z,8.95
2019-02-19T17:06:01.678Z,8.88
2019-02-19T17:08:40.511Z,8.88
2019-02-19T17:11:13.309Z,8.88
2019-02-19T17:13:57.830Z,8.99
2019-02-19T17:16:36.776Z,8.96
2019-02-19T17:19:09.831Z,8.95
2019-02-19T17:21:58.714Z,8.95
2019-02-19T17:24:28.826Z,8.98
2019-02-19T17:26:59.266Z,8.94
2019-02-19T17:29:35.233Z,8.94
2019-02-19T17:32:20.461Z,8.96
2019-02-19T17:34:59.579Z,8.96
2019-02-19T17:37:29.746Z,8.98
2019-02-19T17:39:59.829Z,8.98
2019-02-19T17:42:29.974Z,8.95
2019-02-19T17:45:00.036Z,8.90
2019-02-19T17:47:38.595Z,8.93
2019-02-19T17:50:27.449Z,8.93
2019-02-19T17:53:00.330Z,8.91
2019-02-19T17:55:42.295Z,8.92
2019-02-19T17:58:18.106Z,8.80
2019-02-19T18:00:51.252Z,8.79
2019-02-19T18:03:33.255Z,8.78
2019-02-19T18:06:15.267Z,8.72
2019-02-19T18:08:45.409Z,8.68
2019-02-19T18:11:24.399Z,8.64
2019-02-19T18:13:57.105Z,8.59
2019-02-19T18:16:43.494Z,8.49
2019-02-19T18:19:11.923Z,8.43
2019-02-19T18:21:41.866Z,8.37
2019-02-19T18:24:10.563Z,8.38
2019-02-19T18:26:39.008Z,8.27
2019-02-19T18:29:07.464Z,8.13
2019-02-19T18:31:35.922Z,8.13
2019-02-19T18:34:04.364Z,7.62
2019-02-19T18:36:32.841Z,7.36
2019-02-19T18:39:01.367Z,7.22
2019-02-19T18:41:29.830Z,7.05
2019-02-19T18:43:58.239Z,6.99
2019-02-19T18:46:26.670Z,6.93
2019-02-19T18:48:55.191Z,6.74
2019-02-19T18:51:24.167Z,6.66
2019-02-19T18:53:52.648Z,6.67
2019-02-19T18:56:21.140Z,6.70
2019-02-19T18:58:49.603Z,6.65
2019-02-19T19:01:18.092Z,6.66
2019-02-19T19:03:46.568Z,6.61
2019-02-19T19:06:15.022Z,6.61
2019-02-19T19:08:43.524Z,6.65
2019-02-19T19:11:11.885Z,6.70
2019-02-19T19:13:40.321Z,6.65
2019-02-19T19:16:08.754Z,6.61
2019-02-19T19:18:37.179Z,6.61
2019-02-19T19:21:07.834Z,6.60
2019-02-19T19:23:35.763Z,6.61
2019-02-19T19:26:04.803Z,6.59
2019-02-19T19:28:33.221Z,6.66
2019-02-19T19:31:01.659Z,6.65
2019-02-19T19:33:30.597Z,6.69
2019-02-19T19:35:58.961Z,6.72
2019-02-19T19:38:27.359Z,6.69
2019-02-19T19:40:55.810Z,6.69
2019-02-19T19:43:24.232Z,6.70
2019-02-19T19:45:52.684Z,6.73
2019-02-19T19:48:21.590Z,6.68
2019-02-19T19:50:49.994Z,6.67
2019-02-19T19:53:18.448Z,6.64
2019-02-19T19:55:46.900Z,6.63
2019-02-19T19:58:15.320Z,6.62
2019-02-19T20:00:43.767Z,6.57
2019-02-19T20:03:12.171Z,6.51
2019-02-19T20:05:40.678Z,6.52
2019-02-19T20:08:09.115Z,6.46
2019-02-19T20:10:37.525Z,6.46
2019-02-19T20:13:05.978Z,6.40
2019-02-19T20:15:34.385Z,6.40
2019-02-19T20:18:02.821Z,6.37
2019-02-19T20:20:31.273Z,6.36
2019-02-19T20:22:59.760Z,6.35
2019-02-19T20:25:28.204Z,6.41
2019-02-19T20:27:56.650Z,6.36
2019-02-19T20:30:25.096Z,6.32
2019-02-19T20:32:53.540Z,6.30
2019-02-19T20:35:21.999Z,6.32
2019-02-19T20:37:53.993Z,6.33
2019-02-19T20:40:20.678Z,6.31
2019-02-19T20:42:49.104Z,6.34
2019-02-19T20:45:17.588Z,6.41
2019-02-19T20:47:46.041Z,6.40
2019-02-19T20:50:14.845Z,6.43
2019-02-19T20:52:43.309Z,6.45
2019-02-19T20:55:12.303Z,6.44
2019-02-19T20:57:40.666Z,6.48
2019-02-19T21:00:17.698Z,6.50
2019-02-19T21:02:46.148Z,6.53
2019-02-19T21:05:14.653Z,6.55
2019-02-19T21:07:43.102Z,6.60
2019-02-19T21:10:17.039Z,6.67
2019-02-19T21:12:45.475Z,6.71
2019-02-19T21:15:14.107Z,6.72
2019-02-19T21:17:42.566Z,6.72
2019-02-19T21:20:12.136Z,6.73
2019-02-19T21:22:40.625Z,6.75
2019-02-19T21:25:10.822Z,6.74
2019-02-19T21:27:39.294Z,6.78
2019-02-19T21:30:15.642Z,6.79
2019-02-19T21:32:44.194Z,6.77
2019-02-19T21:35:12.619Z,6.80
2019-02-19T21:37:41.070Z,6.81
2019-02-19T21:40:14.306Z,6.80
2019-02-19T21:42:42.780Z,6.82
2019-02-19T21:45:13.628Z,6.82
2019-02-19T21:47:42.063Z,6.85
2019-02-19T21:50:12.651Z,6.83
2019-02-19T21:52:41.191Z,6.83
2019-02-19T21:55:11.241Z,6.81
2019-02-19T21:57:40.029Z,6.80
2019-02-19T22:00:20.572Z,6.79
2019-02-19T22:02:48.986Z,6.78
2019-02-19T22:05:18.665Z,6.78
2019-02-19T22:07:47.065Z,6.72
2019-02-19T22:10:15.838Z,6.72
2019-02-19T22:12:44.304Z,6.69
2019-02-19T22:15:14.278Z,6.70
2019-02-19T22:17:42.775Z,6.68
2019-02-19T22:20:29.395Z,6.69
2019-02-19T22:22:57.802Z,6.69
2019-02-19T22:25:26.248Z,6.70
2019-02-19T22:27:54.775Z,6.70
2019-02-19T22:30:23.219Z,6.70
2019-02-19T22:32:51.672Z,6.66
2019-02-19T22:35:20.093Z,6.64
2019-02-19T22:37:48.527Z,6.59
2019-02-19T22:40:16.953Z,6.60
2019-02-19T22:42:45.370Z,6.62
2019-02-19T22:45:13.969Z,6.64
2019-02-19T22:47:42.408Z,6.67
2019-02-19T22:50:10.977Z,6.69
2019-02-19T22:52:39.455Z,6.73
2019-02-19T22:55:15.627Z,6.75
2019-02-19T22:57:44.183Z,6.76
2019-02-19T23:00:36.272Z,6.79
2019-02-19T23:03:05.110Z,6.81
2019-02-19T23:05:34.708Z,6.79
2019-02-19T23:08:03.250Z,6.81
2019-02-19T23:10:31.657Z,6.79
2019-02-19T23:13:00.108Z,6.82
2019-02-19T23:15:28.532Z,6.79
2019-02-19T23:17:56.988Z,6.81
2019-02-19T23:20:25.463Z,6.79
2019-02-19T23:22:53.875Z,6.78
2019-02-19T23:25:22.346Z,6.76
2019-02-19T23:27:50.779Z,6.79
2019-02-19T23:30:19.334Z,6.75
2019-02-19T23:32:47.798Z,6.76
2019-02-19T23:35:17.877Z,6.79
2019-02-19T23:37:46.310Z,6.76
2019-02-19T23:40:14.751Z,6.79
2019-02-19T23:42:43.207Z,6.80
2019-02-19T23:45:11.756Z,6.79
2019-02-19T23:47:40.221Z,6.79
2019-02-19T23:50:09.497Z,6.80
2019-02-19T23:52:37.958Z,6.79
2019-02-19T23:55:08.117Z,6.81
2019-02-19T23:57:36.559Z,6.77
